sensor_id;sensor_type;location;lat;lon;timestamp;P1;durP1;ratioP1;P2;durP2;ratioP2
78489;SDS011;67776;52.012;4.736;2023-08-21T00:01:43;9.17;;;3.20;;
78489;SDS011;67776;52.012;4.736;2023-08-21T00:04:09;9.97;;;3.10;;
78489;SDS011;67776;52.012;4.736;2023-08-21T00:06:34;6.50;;;2.70;;
78489;SDS011;67776;52.012;4.736;2023-08-21T00:09:00;10.83;;;3.17;;
78489;SDS011;67776;52.012;4.736;2023-08-21T00:11:26;7.13;;;2.80;;
78489;SDS011;67776;52.012;4.736;2023-08-21T00:13:52;10.57;;;3.17;;
78489;SDS011;67776;52.012;4.736;2023-08-21T00:16:17;8.37;;;3.17;;
78489;SDS011;67776;52.012;4.736;2023-08-21T00:18:43;11.07;;;3.13;;
78489;SDS011;67776;52.012;4.736;2023-08-21T00:21:08;9.05;;;3.10;;
78489;SDS011;67776;52.012;4.736;2023-08-21T00:23:34;10.37;;;3.30;;
78489;SDS011;67776;52.012;4.736;2023-08-21T00:25:59;8.50;;;3.30;;
78489;SDS011;67776;52.012;4.736;2023-08-21T00:28:24;8.27;;;3.10;;
78489;SDS011;67776;52.012;4.736;2023-08-21T00:30:50;7.75;;;3.00;;
78489;SDS011;67776;52.012;4.736;2023-08-21T00:33:15;9.17;;;3.00;;
78489;SDS011;67776;52.012;4.736;2023-08-21T00:35:41;7.63;;;3.10;;
78489;SDS011;67776;52.012;4.736;2023-08-21T00:38:07;8.00;;;2.88;;
78489;SDS011;67776;52.012;4.736;2023-08-21T00:40:33;7.73;;;2.90;;
78489;SDS011;67776;52.012;4.736;2023-08-21T00:42:58;9.03;;;3.03;;
78489;SDS011;67776;52.012;4.736;2023-08-21T00:45:23;11.38;;;3.13;;
78489;SDS011;67776;52.012;4.736;2023-08-21T00:47:49;9.07;;;3.03;;
78489;SDS011;67776;52.012;4.736;2023-08-21T00:50:14;7.87;;;3.00;;
78489;SDS011;67776;52.012;4.736;2023-08-21T00:52:40;6.63;;;2.80;;
78489;SDS011;67776;52.012;4.736;2023-08-21T00:55:09;8.97;;;2.80;;
78489;SDS011;67776;52.012;4.736;2023-08-21T00:57:35;11.52;;;3.10;;
78489;SDS011;67776;52.012;4.736;2023-08-21T01:00:01;7.33;;;2.70;;
78489;SDS011;67776;52.012;4.736;2023-08-21T01:02:29;7.55;;;2.95;;
78489;SDS011;67776;52.012;4.736;2023-08-21T01:04:54;7.83;;;2.80;;
78489;SDS011;67776;52.012;4.736;2023-08-21T01:07:19;10.80;;;3.57;;
78489;SDS011;67776;52.012;4.736;2023-08-21T01:09:46;8.50;;;3.33;;
78489;SDS011;67776;52.012;4.736;2023-08-21T01:12:29;8.57;;;3.37;;
78489;SDS011;67776;52.012;4.736;2023-08-21T01:15:05;8.52;;;3.97;;
78489;SDS011;67776;52.012;4.736;2023-08-21T01:17:33;6.88;;;3.30;;
78489;SDS011;67776;52.012;4.736;2023-08-21T01:20:01;8.32;;;3.83;;
78489;SDS011;67776;52.012;4.736;2023-08-21T01:22:27;8.63;;;3.88;;
78489;SDS011;67776;52.012;4.736;2023-08-21T01:25:00;9.70;;;3.77;;
78489;SDS011;67776;52.012;4.736;2023-08-21T01:27:25;8.68;;;3.92;;
78489;SDS011;67776;52.012;4.736;2023-08-21T01:29:51;8.37;;;3.10;;
78489;SDS011;67776;52.012;4.736;2023-08-21T01:34:49;10.03;;;4.10;;
78489;SDS011;67776;52.012;4.736;2023-08-21T01:37:17;9.13;;;3.60;;
78489;SDS011;67776;52.012;4.736;2023-08-21T01:39:43;9.27;;;4.15;;
78489;SDS011;67776;52.012;4.736;2023-08-21T01:42:08;7.57;;;3.43;;
78489;SDS011;67776;52.012;4.736;2023-08-21T01:44:33;7.78;;;3.97;;
78489;SDS011;67776;52.012;4.736;2023-08-21T01:46:59;10.37;;;4.13;;
78489;SDS011;67776;52.012;4.736;2023-08-21T01:49:24;8.77;;;3.90;;
78489;SDS011;67776;52.012;4.736;2023-08-21T01:51:49;10.40;;;4.30;;
78489;SDS011;67776;52.012;4.736;2023-08-21T01:54:15;7.83;;;3.77;;
78489;SDS011;67776;52.012;4.736;2023-08-21T01:56:40;8.83;;;4.03;;
78489;SDS011;67776;52.012;4.736;2023-08-21T01:59:05;10.03;;;4.27;;
78489;SDS011;67776;52.012;4.736;2023-08-21T02:01:31;8.45;;;3.65;;
78489;SDS011;67776;52.012;4.736;2023-08-21T02:03:57;9.67;;;4.10;;
78489;SDS011;67776;52.012;4.736;2023-08-21T02:06:22;7.97;;;3.50;;
78489;SDS011;67776;52.012;4.736;2023-08-21T02:08:48;11.15;;;3.83;;
78489;SDS011;67776;52.012;4.736;2023-08-21T02:11:14;11.03;;;3.70;;
78489;SDS011;67776;52.012;4.736;2023-08-21T02:13:39;10.70;;;4.10;;
78489;SDS011;67776;52.012;4.736;2023-08-21T02:16:05;7.80;;;3.60;;
78489;SDS011;67776;52.012;4.736;2023-08-21T02:18:30;10.27;;;3.87;;
78489;SDS011;67776;52.012;4.736;2023-08-21T02:20:55;7.70;;;3.60;;
78489;SDS011;67776;52.012;4.736;2023-08-21T02:23:21;8.77;;;3.40;;
78489;SDS011;67776;52.012;4.736;2023-08-21T02:25:46;9.75;;;3.90;;
78489;SDS011;67776;52.012;4.736;2023-08-21T02:28:14;9.15;;;3.75;;
78489;SDS011;67776;52.012;4.736;2023-08-21T02:30:40;12.07;;;3.87;;
78489;SDS011;67776;52.012;4.736;2023-08-21T02:33:05;8.70;;;3.63;;
78489;SDS011;67776;52.012;4.736;2023-08-21T02:35:31;8.48;;;3.75;;
78489;SDS011;67776;52.012;4.736;2023-08-21T02:37:56;9.73;;;3.67;;
78489;SDS011;67776;52.012;4.736;2023-08-21T02:40:21;11.23;;;3.47;;
78489;SDS011;67776;52.012;4.736;2023-08-21T02:42:47;10.13;;;3.80;;
78489;SDS011;67776;52.012;4.736;2023-08-21T02:45:12;9.27;;;3.60;;
78489;SDS011;67776;52.012;4.736;2023-08-21T02:47:38;9.57;;;3.70;;
78489;SDS011;67776;52.012;4.736;2023-08-21T02:50:04;8.77;;;3.38;;
78489;SDS011;67776;52.012;4.736;2023-08-21T02:52:31;8.15;;;3.33;;
78489;SDS011;67776;52.012;4.736;2023-08-21T02:54:57;6.95;;;3.38;;
78489;SDS011;67776;52.012;4.736;2023-08-21T02:57:23;10.53;;;3.47;;
78489;SDS011;67776;52.012;4.736;2023-08-21T02:59:49;7.60;;;3.30;;
78489;SDS011;67776;52.012;4.736;2023-08-21T03:02:15;9.57;;;3.50;;
78489;SDS011;67776;52.012;4.736;2023-08-21T03:04:40;11.40;;;3.17;;
78489;SDS011;67776;52.012;4.736;2023-08-21T03:07:06;9.10;;;3.10;;
78489;SDS011;67776;52.012;4.736;2023-08-21T03:09:31;9.00;;;3.30;;
78489;SDS011;67776;52.012;4.736;2023-08-21T03:11:56;11.53;;;3.13;;
78489;SDS011;67776;52.012;4.736;2023-08-21T03:14:22;9.50;;;2.88;;
78489;SDS011;67776;52.012;4.736;2023-08-21T03:16:47;8.43;;;3.13;;
78489;SDS011;67776;52.012;4.736;2023-08-21T03:19:12;6.87;;;2.80;;
78489;SDS011;67776;52.012;4.736;2023-08-21T03:21:38;8.37;;;3.07;;
78489;SDS011;67776;52.012;4.736;2023-08-21T03:24:03;11.07;;;3.20;;
78489;SDS011;67776;52.012;4.736;2023-08-21T03:26:31;7.90;;;2.92;;
78489;SDS011;67776;52.012;4.736;2023-08-21T03:28:56;10.23;;;3.37;;
78489;SDS011;67776;52.012;4.736;2023-08-21T03:31:21;10.40;;;3.30;;
78489;SDS011;67776;52.012;4.736;2023-08-21T03:33:47;10.03;;;3.17;;
78489;SDS011;67776;52.012;4.736;2023-08-21T03:36:12;8.18;;;2.70;;
78489;SDS011;67776;52.012;4.736;2023-08-21T03:38:37;7.73;;;3.00;;
78489;SDS011;67776;52.012;4.736;2023-08-21T03:41:03;8.60;;;2.97;;
78489;SDS011;67776;52.012;4.736;2023-08-21T03:43:30;8.98;;;3.20;;
78489;SDS011;67776;52.012;4.736;2023-08-21T03:45:55;7.73;;;3.30;;
78489;SDS011;67776;52.012;4.736;2023-08-21T03:48:21;6.97;;;2.93;;
78489;SDS011;67776;52.012;4.736;2023-08-21T03:50:47;7.60;;;3.15;;
78489;SDS011;67776;52.012;4.736;2023-08-21T03:53:14;9.30;;;3.30;;
78489;SDS011;67776;52.012;4.736;2023-08-21T03:55:39;6.97;;;3.20;;
78489;SDS011;67776;52.012;4.736;2023-08-21T03:58:04;7.37;;;3.23;;
78489;SDS011;67776;52.012;4.736;2023-08-21T04:00:30;10.17;;;3.70;;
78489;SDS011;67776;52.012;4.736;2023-08-21T04:02:55;7.93;;;3.55;;
78489;SDS011;67776;52.012;4.736;2023-08-21T04:05:21;8.77;;;3.30;;
78489;SDS011;67776;52.012;4.736;2023-08-21T04:07:46;10.10;;;3.57;;
78489;SDS011;67776;52.012;4.736;2023-08-21T04:10:12;8.63;;;3.50;;
78489;SDS011;67776;52.012;4.736;2023-08-21T04:12:37;9.38;;;3.53;;
78489;SDS011;67776;52.012;4.736;2023-08-21T04:15:03;9.37;;;3.90;;
78489;SDS011;67776;52.012;4.736;2023-08-21T04:17:31;8.23;;;3.65;;
78489;SDS011;67776;52.012;4.736;2023-08-21T04:19:56;11.20;;;3.90;;
78489;SDS011;67776;52.012;4.736;2023-08-21T04:22:22;10.50;;;4.00;;
78489;SDS011;67776;52.012;4.736;2023-08-21T04:24:47;7.40;;;3.80;;
78489;SDS011;67776;52.012;4.736;2023-08-21T04:27:12;10.07;;;3.73;;
78489;SDS011;67776;52.012;4.736;2023-08-21T04:29:38;8.97;;;4.03;;
78489;SDS011;67776;52.012;4.736;2023-08-21T04:32:04;9.05;;;4.05;;
78489;SDS011;67776;52.012;4.736;2023-08-21T04:34:29;10.23;;;3.87;;
78489;SDS011;67776;52.012;4.736;2023-08-21T04:36:55;9.52;;;3.50;;
78489;SDS011;67776;52.012;4.736;2023-08-21T04:39:20;10.80;;;3.77;;
78489;SDS011;67776;52.012;4.736;2023-08-21T04:41:45;9.67;;;3.90;;
78489;SDS011;67776;52.012;4.736;2023-08-21T04:44:11;11.07;;;3.80;;
78489;SDS011;67776;52.012;4.736;2023-08-21T04:46:36;10.07;;;3.80;;
78489;SDS011;67776;52.012;4.736;2023-08-21T04:49:01;8.43;;;3.87;;
78489;SDS011;67776;52.012;4.736;2023-08-21T04:51:27;10.17;;;3.73;;
78489;SDS011;67776;52.012;4.736;2023-08-21T04:53:52;9.90;;;3.90;;
78489;SDS011;67776;52.012;4.736;2023-08-21T04:56:17;10.67;;;3.77;;
78489;SDS011;67776;52.012;4.736;2023-08-21T04:58:43;7.73;;;3.40;;
78489;SDS011;67776;52.012;4.736;2023-08-21T05:01:08;10.40;;;3.90;;
78489;SDS011;67776;52.012;4.736;2023-08-21T05:03:33;10.07;;;3.87;;
78489;SDS011;67776;52.012;4.736;2023-08-21T05:05:59;11.20;;;3.70;;
78489;SDS011;67776;52.012;4.736;2023-08-21T05:08:25;11.03;;;4.17;;
78489;SDS011;67776;52.012;4.736;2023-08-21T05:10:54;8.80;;;4.00;;
78489;SDS011;67776;52.012;4.736;2023-08-21T05:13:21;8.13;;;3.90;;
78489;SDS011;67776;52.012;4.736;2023-08-21T05:15:50;10.27;;;4.35;;
78489;SDS011;67776;52.012;4.736;2023-08-21T05:18:20;9.67;;;4.27;;
78489;SDS011;67776;52.012;4.736;2023-08-21T05:20:46;11.05;;;4.72;;
78489;SDS011;67776;52.012;4.736;2023-08-21T05:23:13;9.93;;;4.40;;
78489;SDS011;67776;52.012;4.736;2023-08-21T05:25:38;8.83;;;3.87;;
78489;SDS011;67776;52.012;4.736;2023-08-21T05:28:04;10.63;;;4.10;;
78489;SDS011;67776;52.012;4.736;2023-08-21T05:30:30;12.90;;;3.90;;
78489;SDS011;67776;52.012;4.736;2023-08-21T05:32:55;10.20;;;3.93;;
78489;SDS011;67776;52.012;4.736;2023-08-21T05:35:20;11.07;;;3.85;;
78489;SDS011;67776;52.012;4.736;2023-08-21T05:37:46;8.67;;;3.53;;
78489;SDS011;67776;52.012;4.736;2023-08-21T05:40:11;11.40;;;3.60;;
78489;SDS011;67776;52.012;4.736;2023-08-21T05:42:37;7.85;;;3.70;;
78489;SDS011;67776;52.012;4.736;2023-08-21T05:45:03;7.93;;;3.83;;
78489;SDS011;67776;52.012;4.736;2023-08-21T05:47:28;15.20;;;4.72;;
78489;SDS011;67776;52.012;4.736;2023-08-21T05:49:54;7.80;;;3.80;;
78489;SDS011;67776;52.012;4.736;2023-08-21T05:52:20;9.33;;;4.03;;
78489;SDS011;67776;52.012;4.736;2023-08-21T05:54:47;10.45;;;3.63;;
78489;SDS011;67776;52.012;4.736;2023-08-21T05:57:12;11.77;;;3.90;;
78489;SDS011;67776;52.012;4.736;2023-08-21T05:59:42;9.40;;;4.10;;
78489;SDS011;67776;52.012;4.736;2023-08-21T06:02:09;8.95;;;3.65;;
78489;SDS011;67776;52.012;4.736;2023-08-21T06:04:35;9.83;;;3.93;;
78489;SDS011;67776;52.012;4.736;2023-08-21T06:07:00;8.37;;;3.67;;
78489;SDS011;67776;52.012;4.736;2023-08-21T06:09:25;9.87;;;3.70;;
78489;SDS011;67776;52.012;4.736;2023-08-21T06:11:50;10.83;;;4.03;;
78489;SDS011;67776;52.012;4.736;2023-08-21T06:14:16;10.67;;;4.03;;
78489;SDS011;67776;52.012;4.736;2023-08-21T06:16:41;9.10;;;3.87;;
78489;SDS011;67776;52.012;4.736;2023-08-21T06:19:08;9.13;;;3.80;;
78489;SDS011;67776;52.012;4.736;2023-08-21T06:21:33;8.90;;;3.80;;
78489;SDS011;67776;52.012;4.736;2023-08-21T06:23:59;9.68;;;3.97;;
78489;SDS011;67776;52.012;4.736;2023-08-21T06:26:24;9.63;;;3.70;;
78489;SDS011;67776;52.012;4.736;2023-08-21T06:28:50;9.70;;;3.67;;
78489;SDS011;67776;52.012;4.736;2023-08-21T06:31:16;9.80;;;3.97;;
78489;SDS011;67776;52.012;4.736;2023-08-21T06:33:41;9.70;;;3.73;;
78489;SDS011;67776;52.012;4.736;2023-08-21T06:36:07;10.57;;;3.60;;
78489;SDS011;67776;52.012;4.736;2023-08-21T06:38:32;10.10;;;3.60;;
78489;SDS011;67776;52.012;4.736;2023-08-21T06:40:57;8.50;;;3.47;;
78489;SDS011;67776;52.012;4.736;2023-08-21T06:43:23;9.53;;;4.07;;
78489;SDS011;67776;52.012;4.736;2023-08-21T06:45:48;9.30;;;3.60;;
78489;SDS011;67776;52.012;4.736;2023-08-21T06:48:13;10.90;;;3.60;;
78489;SDS011;67776;52.012;4.736;2023-08-21T06:50:39;8.70;;;3.90;;
78489;SDS011;67776;52.012;4.736;2023-08-21T06:53:04;9.57;;;3.70;;
78489;SDS011;67776;52.012;4.736;2023-08-21T06:55:29;10.67;;;3.90;;
78489;SDS011;67776;52.012;4.736;2023-08-21T06:57:55;9.20;;;3.73;;
78489;SDS011;67776;52.012;4.736;2023-08-21T07:00:20;9.70;;;3.70;;
78489;SDS011;67776;52.012;4.736;2023-08-21T07:02:45;10.83;;;3.47;;
78489;SDS011;67776;52.012;4.736;2023-08-21T07:05:11;9.80;;;3.90;;
78489;SDS011;67776;52.012;4.736;2023-08-21T07:07:36;9.97;;;3.83;;
78489;SDS011;67776;52.012;4.736;2023-08-21T07:10:01;8.10;;;3.63;;
78489;SDS011;67776;52.012;4.736;2023-08-21T07:12:28;11.05;;;3.22;;
78489;SDS011;67776;52.012;4.736;2023-08-21T07:14:53;7.90;;;3.23;;
78489;SDS011;67776;52.012;4.736;2023-08-21T07:17:19;11.43;;;3.80;;
78489;SDS011;67776;52.012;4.736;2023-08-21T07:19:44;8.25;;;3.67;;
78489;SDS011;67776;52.012;4.736;2023-08-21T07:22:10;7.80;;;3.10;;
78489;SDS011;67776;52.012;4.736;2023-08-21T07:24:35;14.50;;;3.70;;
78489;SDS011;67776;52.012;4.736;2023-08-21T07:27:00;10.67;;;3.57;;
78489;SDS011;67776;52.012;4.736;2023-08-21T07:29:26;8.70;;;3.40;;
78489;SDS011;67776;52.012;4.736;2023-08-21T07:31:51;7.63;;;3.00;;
78489;SDS011;67776;52.012;4.736;2023-08-21T07:34:16;9.17;;;2.90;;
78489;SDS011;67776;52.012;4.736;2023-08-21T07:36:41;9.87;;;3.10;;
78489;SDS011;67776;52.012;4.736;2023-08-21T07:39:07;8.80;;;3.00;;
78489;SDS011;67776;52.012;4.736;2023-08-21T07:41:32;6.97;;;3.17;;
78489;SDS011;67776;52.012;4.736;2023-08-21T07:43:58;9.68;;;3.03;;
78489;SDS011;67776;52.012;4.736;2023-08-21T07:46:24;18.17;;;3.80;;
78489;SDS011;67776;52.012;4.736;2023-08-21T07:48:49;9.63;;;3.67;;
78489;SDS011;67776;52.012;4.736;2023-08-21T07:51:15;8.93;;;3.33;;
78489;SDS011;67776;52.012;4.736;2023-08-21T07:53:40;10.63;;;3.60;;
78489;SDS011;67776;52.012;4.736;2023-08-21T07:56:06;11.13;;;3.78;;
78489;SDS011;67776;52.012;4.736;2023-08-21T07:58:31;11.20;;;3.83;;
78489;SDS011;67776;52.012;4.736;2023-08-21T08:00:57;14.68;;;3.95;;
78489;SDS011;67776;52.012;4.736;2023-08-21T08:03:23;10.75;;;4.45;;
78489;SDS011;67776;52.012;4.736;2023-08-21T08:05:49;10.07;;;3.23;;
78489;SDS011;67776;52.012;4.736;2023-08-21T08:08:16;9.83;;;3.87;;
78489;SDS011;67776;52.012;4.736;2023-08-21T08:10:42;8.05;;;3.17;;
78489;SDS011;67776;52.012;4.736;2023-08-21T08:13:07;9.80;;;3.40;;
78489;SDS011;67776;52.012;4.736;2023-08-21T08:15:33;7.75;;;3.00;;
78489;SDS011;67776;52.012;4.736;2023-08-21T08:18:00;9.48;;;3.20;;
78489;SDS011;67776;52.012;4.736;2023-08-21T08:20:26;10.98;;;3.40;;
78489;SDS011;67776;52.012;4.736;2023-08-21T08:22:51;10.53;;;3.40;;
78489;SDS011;67776;52.012;4.736;2023-08-21T08:25:16;11.30;;;3.80;;
78489;SDS011;67776;52.012;4.736;2023-08-21T08:27:42;10.67;;;3.60;;
78489;SDS011;67776;52.012;4.736;2023-08-21T08:30:08;9.13;;;3.17;;
78489;SDS011;67776;52.012;4.736;2023-08-21T08:32:34;10.07;;;3.27;;
78489;SDS011;67776;52.012;4.736;2023-08-21T08:34:59;12.50;;;3.30;;
78489;SDS011;67776;52.012;4.736;2023-08-21T08:37:24;12.60;;;3.20;;
78489;SDS011;67776;52.012;4.736;2023-08-21T08:39:50;10.33;;;3.20;;
78489;SDS011;67776;52.012;4.736;2023-08-21T08:42:15;9.73;;;2.97;;
78489;SDS011;67776;52.012;4.736;2023-08-21T08:44:41;9.73;;;3.42;;
78489;SDS011;67776;52.012;4.736;2023-08-21T08:47:08;8.93;;;3.50;;
78489;SDS011;67776;52.012;4.736;2023-08-21T08:49:37;7.22;;;2.85;;
78489;SDS011;67776;52.012;4.736;2023-08-21T08:52:03;9.38;;;2.88;;
78489;SDS011;67776;52.012;4.736;2023-08-21T08:54:29;7.85;;;2.65;;
78489;SDS011;67776;52.012;4.736;2023-08-21T08:56:55;10.90;;;2.85;;
78489;SDS011;67776;52.012;4.736;2023-08-21T08:59:21;9.10;;;3.10;;
78489;SDS011;67776;52.012;4.736;2023-08-21T09:01:46;7.60;;;2.63;;
78489;SDS011;67776;52.012;4.736;2023-08-21T09:04:12;9.25;;;2.90;;
78489;SDS011;67776;52.012;4.736;2023-08-21T09:06:38;10.57;;;2.80;;
78489;SDS011;67776;52.012;4.736;2023-08-21T09:09:03;9.60;;;2.90;;
78489;SDS011;67776;52.012;4.736;2023-08-21T09:11:30;10.27;;;2.75;;
78489;SDS011;67776;52.012;4.736;2023-08-21T09:13:55;9.60;;;2.80;;
78489;SDS011;67776;52.012;4.736;2023-08-21T09:16:21;8.05;;;2.60;;
78489;SDS011;67776;52.012;4.736;2023-08-21T09:18:48;9.40;;;2.80;;
78489;SDS011;67776;52.012;4.736;2023-08-21T09:21:19;6.47;;;3.00;;
78489;SDS011;67776;52.012;4.736;2023-08-21T09:23:46;7.55;;;2.40;;
78489;SDS011;67776;52.012;4.736;2023-08-21T09:26:18;8.13;;;2.30;;
78489;SDS011;67776;52.012;4.736;2023-08-21T09:28:48;6.10;;;2.50;;
78489;SDS011;67776;52.012;4.736;2023-08-21T09:31:14;7.78;;;2.53;;
78489;SDS011;67776;52.012;4.736;2023-08-21T09:33:40;7.00;;;2.30;;
78489;SDS011;67776;52.012;4.736;2023-08-21T09:36:05;6.67;;;2.40;;
78489;SDS011;67776;52.012;4.736;2023-08-21T09:38:31;7.38;;;2.15;;
78489;SDS011;67776;52.012;4.736;2023-08-21T09:40:58;6.20;;;2.20;;
78489;SDS011;67776;52.012;4.736;2023-08-21T09:43:24;6.93;;;2.13;;
78489;SDS011;67776;52.012;4.736;2023-08-21T09:45:50;8.03;;;2.33;;
78489;SDS011;67776;52.012;4.736;2023-08-21T09:48:24;7.95;;;2.45;;
78489;SDS011;67776;52.012;4.736;2023-08-21T09:50:53;6.60;;;2.20;;
78489;SDS011;67776;52.012;4.736;2023-08-21T09:53:20;6.33;;;2.20;;
78489;SDS011;67776;52.012;4.736;2023-08-21T09:55:47;5.97;;;1.80;;
78489;SDS011;67776;52.012;4.736;2023-08-21T09:58:15;5.35;;;1.90;;
78489;SDS011;67776;52.012;4.736;2023-08-21T10:00:42;8.23;;;2.00;;
78489;SDS011;67776;52.012;4.736;2023-08-21T10:03:09;7.18;;;1.95;;
78489;SDS011;67776;52.012;4.736;2023-08-21T10:05:35;6.47;;;1.85;;
78489;SDS011;67776;52.012;4.736;2023-08-21T10:08:02;4.80;;;1.92;;
78489;SDS011;67776;52.012;4.736;2023-08-21T10:10:33;7.00;;;1.75;;
78489;SDS011;67776;52.012;4.736;2023-08-21T10:13:00;4.83;;;1.77;;
78489;SDS011;67776;52.012;4.736;2023-08-21T10:15:28;5.20;;;1.60;;
78489;SDS011;67776;52.012;4.736;2023-08-21T10:17:56;6.32;;;1.80;;
78489;SDS011;67776;52.012;4.736;2023-08-21T10:20:23;4.90;;;1.77;;
78489;SDS011;67776;52.012;4.736;2023-08-21T10:22:54;5.88;;;2.10;;
78489;SDS011;67776;52.012;4.736;2023-08-21T10:25:26;4.95;;;2.08;;
78489;SDS011;67776;52.012;4.736;2023-08-21T10:27:52;4.43;;;1.53;;
78489;SDS011;67776;52.012;4.736;2023-08-21T10:30:25;4.13;;;1.50;;
78489;SDS011;67776;52.012;4.736;2023-08-21T10:32:53;5.70;;;1.60;;
78489;SDS011;67776;52.012;4.736;2023-08-21T10:35:20;6.70;;;2.47;;
78489;SDS011;67776;52.012;4.736;2023-08-21T10:40:36;4.22;;;1.65;;
78489;SDS011;67776;52.012;4.736;2023-08-21T10:43:02;7.47;;;2.90;;
78489;SDS011;67776;52.012;4.736;2023-08-21T10:45:28;5.18;;;1.50;;
78489;SDS011;67776;52.012;4.736;2023-08-21T10:48:00;5.28;;;1.70;;
78489;SDS011;67776;52.012;4.736;2023-08-21T10:50:26;5.47;;;1.67;;
78489;SDS011;67776;52.012;4.736;2023-08-21T10:52:52;4.32;;;1.63;;
78489;SDS011;67776;52.012;4.736;2023-08-21T10:55:18;3.43;;;1.57;;
78489;SDS011;67776;52.012;4.736;2023-08-21T10:57:45;7.18;;;2.00;;
78489;SDS011;67776;52.012;4.736;2023-08-21T11:00:12;5.78;;;2.00;;
78489;SDS011;67776;52.012;4.736;2023-08-21T11:02:40;5.17;;;1.80;;
78489;SDS011;67776;52.012;4.736;2023-08-21T11:05:08;4.50;;;1.60;;
78489;SDS011;67776;52.012;4.736;2023-08-21T11:07:52;5.45;;;1.67;;
78489;SDS011;67776;52.012;4.736;2023-08-21T11:10:21;5.30;;;1.90;;
78489;SDS011;67776;52.012;4.736;2023-08-21T11:12:51;4.57;;;1.50;;
78489;SDS011;67776;52.012;4.736;2023-08-21T11:15:21;4.27;;;1.50;;
78489;SDS011;67776;52.012;4.736;2023-08-21T11:17:53;4.68;;;1.77;;
78489;SDS011;67776;52.012;4.736;2023-08-21T11:20:19;3.92;;;1.52;;
78489;SDS011;67776;52.012;4.736;2023-08-21T11:22:45;3.43;;;1.53;;
78489;SDS011;67776;52.012;4.736;2023-08-21T11:25:10;4.57;;;1.47;;
78489;SDS011;67776;52.012;4.736;2023-08-21T11:27:35;3.47;;;1.63;;
78489;SDS011;67776;52.012;4.736;2023-08-21T11:30:01;4.85;;;1.70;;
78489;SDS011;67776;52.012;4.736;2023-08-21T11:32:27;5.23;;;1.53;;
78489;SDS011;67776;52.012;4.736;2023-08-21T11:34:55;5.97;;;1.60;;
78489;SDS011;67776;52.012;4.736;2023-08-21T11:37:25;4.90;;;1.60;;
78489;SDS011;67776;52.012;4.736;2023-08-21T11:39:52;6.47;;;2.15;;
78489;SDS011;67776;52.012;4.736;2023-08-21T11:42:18;7.15;;;1.70;;
78489;SDS011;67776;52.012;4.736;2023-08-21T11:44:47;4.78;;;1.80;;
78489;SDS011;67776;52.012;4.736;2023-08-21T11:47:15;4.33;;;1.67;;
78489;SDS011;67776;52.012;4.736;2023-08-21T11:49:42;4.10;;;1.50;;
78489;SDS011;67776;52.012;4.736;2023-08-21T11:52:09;4.15;;;1.60;;
78489;SDS011;67776;52.012;4.736;2023-08-21T11:54:35;4.97;;;1.90;;
78489;SDS011;67776;52.012;4.736;2023-08-21T11:57:11;4.90;;;1.88;;
78489;SDS011;67776;52.012;4.736;2023-08-21T11:59:38;5.80;;;1.87;;
78489;SDS011;67776;52.012;4.736;2023-08-21T12:04:35;5.40;;;1.70;;
78489;SDS011;67776;52.012;4.736;2023-08-21T12:07:00;6.53;;;1.63;;
78489;SDS011;67776;52.012;4.736;2023-08-21T12:09:26;4.57;;;1.93;;
78489;SDS011;67776;52.012;4.736;2023-08-21T12:11:52;5.13;;;1.98;;
78489;SDS011;67776;52.012;4.736;2023-08-21T12:14:17;4.40;;;1.70;;
78489;SDS011;67776;52.012;4.736;2023-08-21T12:16:42;5.37;;;1.90;;
78489;SDS011;67776;52.012;4.736;2023-08-21T12:19:08;5.00;;;1.90;;
78489;SDS011;67776;52.012;4.736;2023-08-21T12:21:34;6.38;;;1.83;;
78489;SDS011;67776;52.012;4.736;2023-08-21T12:24:02;4.57;;;1.60;;
78489;SDS011;67776;52.012;4.736;2023-08-21T12:26:29;5.10;;;1.88;;
78489;SDS011;67776;52.012;4.736;2023-08-21T12:28:55;4.13;;;1.73;;
78489;SDS011;67776;52.012;4.736;2023-08-21T12:31:20;2.83;;;1.60;;
78489;SDS011;67776;52.012;4.736;2023-08-21T12:33:46;4.68;;;1.60;;
78489;SDS011;67776;52.012;4.736;2023-08-21T12:36:11;4.60;;;1.70;;
78489;SDS011;67776;52.012;4.736;2023-08-21T12:38:36;4.23;;;1.87;;
78489;SDS011;67776;52.012;4.736;2023-08-21T12:41:02;5.20;;;1.80;;
78489;SDS011;67776;52.012;4.736;2023-08-21T12:43:28;4.20;;;1.90;;
78489;SDS011;67776;52.012;4.736;2023-08-21T12:45:53;4.57;;;1.60;;
78489;SDS011;67776;52.012;4.736;2023-08-21T12:48:18;3.63;;;1.80;;
78489;SDS011;67776;52.012;4.736;2023-08-21T12:50:44;3.90;;;1.60;;
78489;SDS011;67776;52.012;4.736;2023-08-21T12:53:09;4.20;;;1.60;;
78489;SDS011;67776;52.012;4.736;2023-08-21T12:55:34;3.30;;;1.43;;
78489;SDS011;67776;52.012;4.736;2023-08-21T12:58:01;5.50;;;1.73;;
78489;SDS011;67776;52.012;4.736;2023-08-21T13:00:26;4.23;;;1.50;;
78489;SDS011;67776;52.012;4.736;2023-08-21T13:02:51;4.20;;;1.60;;
78489;SDS011;67776;52.012;4.736;2023-08-21T13:05:17;5.73;;;1.57;;
78489;SDS011;67776;52.012;4.736;2023-08-21T13:07:42;6.10;;;1.73;;
78489;SDS011;67776;52.012;4.736;2023-08-21T13:10:08;4.93;;;2.00;;
78489;SDS011;67776;52.012;4.736;2023-08-21T13:12:33;2.93;;;1.70;;
78489;SDS011;67776;52.012;4.736;2023-08-21T13:14:59;4.03;;;1.80;;
78489;SDS011;67776;52.012;4.736;2023-08-21T13:17:24;2.95;;;1.50;;
78489;SDS011;67776;52.012;4.736;2023-08-21T13:19:50;3.30;;;1.70;;
78489;SDS011;67776;52.012;4.736;2023-08-21T13:22:16;4.13;;;2.13;;
78489;SDS011;67776;52.012;4.736;2023-08-21T13:24:42;3.97;;;2.03;;
78489;SDS011;67776;52.012;4.736;2023-08-21T13:27:07;6.33;;;2.00;;
78489;SDS011;67776;52.012;4.736;2023-08-21T13:29:33;3.93;;;1.80;;
78489;SDS011;67776;52.012;4.736;2023-08-21T13:31:58;7.57;;;2.00;;
78489;SDS011;67776;52.012;4.736;2023-08-21T13:34:24;4.68;;;1.90;;
78489;SDS011;67776;52.012;4.736;2023-08-21T13:36:49;5.67;;;2.00;;
78489;SDS011;67776;52.012;4.736;2023-08-21T13:39:15;6.32;;;1.70;;
78489;SDS011;67776;52.012;4.736;2023-08-21T13:41:41;4.30;;;1.67;;
78489;SDS011;67776;52.012;4.736;2023-08-21T13:44:06;3.10;;;1.40;;
78489;SDS011;67776;52.012;4.736;2023-08-21T13:46:33;4.22;;;1.70;;
78489;SDS011;67776;52.012;4.736;2023-08-21T13:48:58;7.30;;;1.70;;
78489;SDS011;67776;52.012;4.736;2023-08-21T13:51:24;3.77;;;1.83;;
78489;SDS011;67776;52.012;4.736;2023-08-21T13:53:49;4.73;;;2.00;;
78489;SDS011;67776;52.012;4.736;2023-08-21T13:56:14;4.93;;;2.13;;
78489;SDS011;67776;52.012;4.736;2023-08-21T13:58:40;4.60;;;1.90;;
78489;SDS011;67776;52.012;4.736;2023-08-21T14:01:05;3.60;;;1.80;;
78489;SDS011;67776;52.012;4.736;2023-08-21T14:03:32;4.90;;;1.63;;
78489;SDS011;67776;52.012;4.736;2023-08-21T14:05:58;3.40;;;1.30;;
78489;SDS011;67776;52.012;4.736;2023-08-21T14:08:24;4.80;;;1.63;;
78489;SDS011;67776;52.012;4.736;2023-08-21T14:10:49;4.70;;;1.80;;
78489;SDS011;67776;52.012;4.736;2023-08-21T14:13:15;5.63;;;1.93;;
78489;SDS011;67776;52.012;4.736;2023-08-21T14:15:40;4.50;;;1.90;;
78489;SDS011;67776;52.012;4.736;2023-08-21T14:18:05;5.93;;;2.17;;
78489;SDS011;67776;52.012;4.736;2023-08-21T14:20:31;6.00;;;1.70;;
78489;SDS011;67776;52.012;4.736;2023-08-21T14:22:56;5.23;;;2.03;;
78489;SDS011;67776;52.012;4.736;2023-08-21T14:25:22;4.55;;;1.90;;
78489;SDS011;67776;52.012;4.736;2023-08-21T14:27:47;5.87;;;2.10;;
78489;SDS011;67776;52.012;4.736;2023-08-21T14:30:14;7.17;;;1.90;;
78489;SDS011;67776;52.012;4.736;2023-08-21T14:32:39;5.00;;;1.70;;
78489;SDS011;67776;52.012;4.736;2023-08-21T14:35:05;4.70;;;2.00;;
78489;SDS011;67776;52.012;4.736;2023-08-21T14:37:33;7.15;;;1.90;;
78489;SDS011;67776;52.012;4.736;2023-08-21T14:39:58;6.17;;;1.83;;
78489;SDS011;67776;52.012;4.736;2023-08-21T14:42:23;6.90;;;2.10;;
78489;SDS011;67776;52.012;4.736;2023-08-21T14:44:49;5.00;;;1.85;;
78489;SDS011;67776;52.012;4.736;2023-08-21T14:47:15;5.97;;;1.90;;